Time;durP1;ratioP1;P1;durP2;ratioP2;P2;SDS_P1;SDS_P2;PMS_P1;PMS_P2;Temp;Humidity;BMP_temperature;BMP_pressure;BME280_temperature;BME280_humidity;BME280_pressure;Samples;Min_cycle;Max_cycle;Signal;HPM_P1;HPM_P2
2022/06/28 00:02:11;;;;;;;10.18;6.53;;;;;;;13.72;100.00;101937.63;5052717;28;20045;-48
2022/06/28 00:04:39;;;;;;;10.43;7.10;;;;;;;13.63;100.00;101936.41;5052812;28;20420;-49
2022/06/28 00:07:08;;;;;;;10.40;6.78;;;;;;;13.59;100.00;101931.38;5052752;28;20044;-52
2022/06/28 00:09:36;;;;;;;11.20;6.80;;;;;;;13.55;100.00;101936.00;5051645;28;20129;-54
2022/06/28 00:12:04;;;;;;;8.07;6.15;;;;;;;13.55;100.00;101933.34;5052633;28;20123;-53
2022/06/28 00:17:19;;;;;;;10.05;6.40;;;;;;;13.61;100.00;101925.06;5052814;28;20045;-44
2022/06/28 00:19:47;;;;;;;9.52;6.53;;;;;;;13.50;100.00;101925.72;5052529;28;20045;-46
2022/06/28 00:22:15;;;;;;;9.25;5.90;;;;;;;13.59;100.00;101929.56;5052340;28;20041;-47
2022/06/28 00:24:43;;;;;;;9.45;6.40;;;;;;;13.50;100.00;101922.22;5052350;28;20052;-47
2022/06/28 00:27:12;;;;;;;9.52;6.50;;;;;;;13.56;100.00;101931.56;5052496;28;20041;-48
2022/06/28 00:29:41;;;;;;;8.30;6.15;;;;;;;13.53;100.00;101925.53;5052312;28;20045;-49
2022/06/28 00:32:13;;;;;;;10.60;6.28;;;;;;;13.51;100.00;101931.84;5052189;28;20538;-54
2022/06/28 00:34:41;;;;;;;8.68;6.57;;;;;;;13.43;100.00;101923.53;5052104;28;20052;-45
2022/06/28 00:37:09;;;;;;;11.43;7.25;;;;;;;13.44;100.00;101920.81;5052343;28;20041;-52
2022/06/28 00:39:37;;;;;;;10.63;6.95;;;;;;;13.46;100.00;101913.63;5050982;28;20064;-53
2022/06/28 00:42:05;;;;;;;9.30;6.93;;;;;;;13.49;100.00;101917.88;5052428;28;20443;-49
2022/06/28 00:44:34;;;;;;;9.48;7.20;;;;;;;13.39;100.00;101919.38;5051965;28;20683;-46
2022/06/28 00:47:04;;;;;;;10.30;7.57;;;;;;;13.33;100.00;101918.78;5052146;28;20056;-46
2022/06/28 00:49:32;;;;;;;10.43;7.93;;;;;;;13.45;100.00;101927.78;5052511;28;20049;-45
2022/06/28 00:52:02;;;;;;;11.32;7.63;;;;;;;13.48;100.00;101922.34;5052140;28;20033;-52
2022/06/28 00:54:31;;;;;;;15.52;8.93;;;;;;;13.37;100.00;101931.84;5051664;28;20148;-52
2022/06/28 00:57:00;;;;;;;12.40;9.05;;;;;;;13.37;100.00;101937.97;5051948;28;20091;-45
2022/06/28 00:59:28;;;;;;;15.65;9.52;;;;;;;13.32;100.00;101938.22;5051685;28;20622;-46
2022/06/28 01:01:57;;;;;;;15.40;9.95;;;;;;;13.18;100.00;101946.97;5051895;28;20381;-44
2022/06/28 01:04:28;;;;;;;14.27;10.40;;;;;;;13.08;100.00;101950.22;5052082;28;20455;-45
2022/06/28 01:06:56;;;;;;;12.18;9.63;;;;;;;13.07;100.00;101943.22;5051448;28;20049;-49
2022/06/28 01:09:24;;;;;;;10.93;8.55;;;;;;;13.02;100.00;101952.28;5051195;28;20091;-48
2022/06/28 01:11:52;;;;;;;11.75;8.57;;;;;;;12.94;100.00;101953.63;5051357;28;20491;-53
2022/06/28 01:14:20;;;;;;;12.77;8.48;;;;;;;12.88;100.00;101943.44;5051499;28;20442;-49
2022/06/28 01:16:48;;;;;;;11.38;7.72;;;;;;;12.88;100.00;101946.94;5051896;28;20069;-53
2022/06/28 01:19:17;;;;;;;11.13;7.80;;;;;;;12.90;100.00;101946.84;5051414;28;20048;-55
2022/06/28 01:21:49;;;;;;;11.27;8.48;;;;;;;12.92;100.00;101945.81;5054699;28;20514;-46
2022/06/28 01:24:18;;;;;;;14.67;9.37;;;;;;;13.05;100.00;101938.03;5055355;28;20495;-52
2022/06/28 01:26:47;;;;;;;12.05;8.13;;;;;;;13.08;100.00;101943.13;5055516;28;20061;-51
2022/06/28 01:29:16;;;;;;;13.35;8.75;;;;;;;13.00;100.00;101942.75;5055514;28;20045;-47
2022/06/28 01:31:44;;;;;;;13.05;8.52;;;;;;;13.01;100.00;101944.44;5055440;28;20128;-50
2022/06/28 01:34:14;;;;;;;11.93;9.25;;;;;;;12.99;100.00;101941.03;5055304;28;20115;-50
2022/06/28 01:36:42;;;;;;;13.88;10.25;;;;;;;13.00;100.00;101948.84;5055346;28;20053;-49
2022/06/28 01:39:10;;;;;;;14.43;9.60;;;;;;;13.01;100.00;101950.56;5055020;28;20067;-45
2022/06/28 01:41:40;;;;;;;11.27;9.23;;;;;;;12.99;100.00;101955.09;5054888;28;20411;-53
2022/06/28 01:44:10;;;;;;;10.98;9.10;;;;;;;12.93;100.00;101959.88;5055313;28;20057;-51
2022/06/28 01:46:39;;;;;;;11.25;9.15;;;;;;;12.93;100.00;101951.97;5054776;28;20057;-51
2022/06/28 01:49:08;;;;;;;12.20;9.05;;;;;;;12.87;100.00;101953.16;5055198;28;20496;-53
2022/06/28 01:51:36;;;;;;;13.20;9.70;;;;;;;12.80;100.00;101957.06;5054932;28;20377;-44
2022/06/28 01:54:04;;;;;;;11.95;9.13;;;;;;;12.91;100.00;101965.25;5054913;28;20476;-44
2022/06/28 01:56:33;;;;;;;12.55;9.32;;;;;;;12.81;100.00;101956.16;5055021;28;20516;-47
2022/06/28 01:59:02;;;;;;;12.20;9.07;;;;;;;12.85;100.00;101968.22;5054650;28;20037;-54
2022/06/28 02:01:30;;;;;;;14.40;9.05;;;;;;;12.85;100.00;101955.03;5054681;28;20049;-49
2022/06/28 02:03:58;;;;;;;13.02;8.95;;;;;;;12.93;100.00;101963.38;5054900;28;20095;-48
2022/06/28 02:06:27;;;;;;;14.25;10.20;;;;;;;12.94;100.00;101958.91;5053473;28;20148;-52
2022/06/28 02:08:55;;;;;;;12.10;9.50;;;;;;;12.96;100.00;101960.53;5054732;28;20069;-48
2022/06/28 02:11:23;;;;;;;11.68;9.07;;;;;;;12.77;100.00;101957.25;5054891;28;20045;-51
2022/06/28 02:13:51;;;;;;;13.50;9.57;;;;;;;12.71;100.00;101958.47;5054851;28;20451;-46
2022/06/28 02:16:20;;;;;;;11.95;8.55;;;;;;;12.68;100.00;101964.75;5054787;28;20045;-47
2022/06/28 02:18:48;;;;;;;14.15;8.68;;;;;;;12.63;100.00;101969.44;5054649;28;20064;-52
2022/06/28 02:21:16;;;;;;;11.27;9.52;;;;;;;12.64;100.00;101970.31;5054245;28;20059;-51
2022/06/28 02:23:45;;;;;;;15.68;9.45;;;;;;;12.60;100.00;101968.78;5054264;28;20048;-53
2022/06/28 02:26:13;;;;;;;14.98;10.95;;;;;;;12.54;100.00;101971.75;5054395;28;20052;-46
2022/06/28 02:28:42;;;;;;;15.57;10.38;;;;;;;12.57;100.00;101974.19;5054401;28;20090;-44
2022/06/28 02:31:10;;;;;;;12.68;9.82;;;;;;;12.52;100.00;101980.59;5054292;28;20037;-48
2022/06/28 02:33:40;;;;;;;14.32;9.85;;;;;;;12.52;100.00;101979.75;5053744;28;20447;-47
2022/06/28 02:41:40;;;;;;;15.95;10.38;;;;;;;12.45;100.00;101986.31;5054220;28;20388;-55
2022/06/28 02:44:08;;;;;;;13.50;10.48;;;;;;;12.50;100.00;101992.16;5054403;28;20052;-50
2022/06/28 02:46:37;;;;;;;14.10;9.90;;;;;;;12.45;100.00;101995.06;5053934;28;20139;-49
2022/06/28 02:49:06;;;;;;;12.50;10.23;;;;;;;12.48;100.00;101991.41;5053810;28;20044;-48
2022/06/28 02:51:34;;;;;;;11.80;9.40;;;;;;;12.38;100.00;101996.34;5054030;28;20048;-50
2022/06/28 02:54:02;;;;;;;17.00;9.40;;;;;;;12.40;100.00;101996.25;5053892;28;20068;-54
2022/06/28 02:56:30;;;;;;;13.88;9.07;;;;;;;12.39;100.00;102010.38;5054160;28;20052;-53
2022/06/28 02:58:58;;;;;;;12.93;8.75;;;;;;;12.36;100.00;102010.53;5054271;28;20041;-46
2022/06/28 03:01:27;;;;;;;11.02;7.53;;;;;;;12.33;100.00;102012.41;5053815;28;20075;-52
2022/06/28 03:03:55;;;;;;;11.82;8.23;;;;;;;12.33;100.00;102014.19;5053836;28;20128;-47
2022/06/28 03:06:25;;;;;;;9.68;7.13;;;;;;;12.37;100.00;102015.75;5053832;28;20052;-47
2022/06/28 03:08:53;;;;;;;9.57;7.45;;;;;;;12.32;100.00;102010.72;5053899;28;20562;-55
2022/06/28 03:11:21;;;;;;;8.55;6.95;;;;;;;12.17;100.00;102014.16;5053933;28;20404;-46
2022/06/28 03:13:49;;;;;;;9.02;6.95;;;;;;;12.16;100.00;102020.38;5053784;28;20037;-46
2022/06/28 03:16:17;;;;;;;9.80;6.97;;;;;;;12.15;100.00;102019.53;5053720;28;20080;-53
2022/06/28 03:18:45;;;;;;;10.13;7.15;;;;;;;12.12;100.00;102022.34;5053377;28;20052;-52
2022/06/28 03:21:13;;;;;;;9.15;6.90;;;;;;;12.08;100.00;102026.06;5053247;28;20068;-53
2022/06/28 03:23:42;;;;;;;8.82;7.18;;;;;;;12.15;100.00;102023.97;5053557;28;20409;-52
2022/06/28 03:26:10;;;;;;;8.60;6.57;;;;;;;12.13;100.00;102025.81;5052926;28;20436;-53
2022/06/28 03:28:39;;;;;;;10.95;8.35;;;;;;;12.11;100.00;102031.16;5051926;28;20067;-50
2022/06/28 03:31:07;;;;;;;11.93;8.32;;;;;;;12.05;100.00;102026.19;5053556;28;20052;-46
2022/06/28 03:33:35;;;;;;;10.23;7.78;;;;;;;12.13;100.00;102036.34;5051944;28;20056;-47
2022/06/28 03:36:03;;;;;;;9.98;8.10;;;;;;;12.14;100.00;102038.91;5053242;28;20045;-46
2022/06/28 03:38:31;;;;;;;10.75;8.20;;;;;;;12.11;100.00;102040.88;5052915;28;20041;-53
2022/06/28 03:41:00;;;;;;;12.35;9.13;;;;;;;12.17;100.00;102038.78;5053156;28;20381;-49
2022/06/28 03:43:28;;;;;;;11.48;8.48;;;;;;;12.21;100.00;102042.06;5052776;28;20103;-51
2022/06/28 03:45:56;;;;;;;10.80;8.60;;;;;;;12.15;100.00;102047.69;5052843;28;20053;-52
2022/06/28 03:48:25;;;;;;;11.48;8.90;;;;;;;12.21;100.00;102042.06;5051708;28;20140;-47
2022/06/28 03:50:53;;;;;;;12.05;8.70;;;;;;;12.18;100.00;102042.25;5053292;28;20053;-46
2022/06/28 03:53:21;;;;;;;11.43;9.00;;;;;;;12.17;100.00;102049.31;5053106;28;20057;-45
2022/06/28 03:55:49;;;;;;;12.65;8.65;;;;;;;12.12;100.00;102047.81;5053048;28;20045;-47
2022/06/28 03:58:18;;;;;;;10.25;7.93;;;;;;;12.14;100.00;102045.97;5051566;28;20103;-46
2022/06/28 04:00:46;;;;;;;11.68;9.07;;;;;;;12.10;100.00;102047.06;5052534;28;20041;-48
2022/06/28 04:03:14;;;;;;;13.55;9.63;;;;;;;12.06;100.00;102048.16;5052716;28;20060;-45
2022/06/28 04:05:42;;;;;;;13.25;9.43;;;;;;;12.00;100.00;102050.19;5051194;28;20140;-50
2022/06/28 04:08:10;;;;;;;12.18;9.63;;;;;;;12.03;100.00;102054.44;5052721;28;20442;-47
2022/06/28 04:10:38;;;;;;;12.98;9.52;;;;;;;12.10;100.00;102052.34;5052528;28;20439;-48
2022/06/28 04:13:06;;;;;;;11.63;9.48;;;;;;;12.12;100.00;102059.25;5052523;28;20110;-45
2022/06/28 04:15:37;;;;;;;12.38;9.90;;;;;;;12.07;100.00;102057.78;5052233;28;20167;-51
2022/06/28 04:18:07;;;;;;;12.48;10.02;;;;;;;12.14;100.00;102053.88;5052348;28;20048;-52
2022/06/28 04:20:36;;;;;;;13.95;10.45;;;;;;;12.09;100.00;102061.19;5052308;28;20052;-54
2022/06/28 04:23:04;;;;;;;13.38;10.23;;;;;;;12.15;100.00;102058.25;5052295;28;20144;-49
2022/06/28 04:25:32;;;;;;;12.27;10.02;;;;;;;12.21;100.00;102060.53;5052194;28;20055;-55
2022/06/28 04:28:01;;;;;;;15.48;10.57;;;;;;;12.34;100.00;102064.22;5052220;28;20114;-45
2022/06/28 04:30:31;;;;;;;12.57;10.10;;;;;;;12.29;100.00;102062.78;5052257;28;20131;-53
2022/06/28 04:33:00;;;;;;;12.98;10.50;;;;;;;12.31;100.00;102067.03;5052414;28;20053;-53
2022/06/28 04:35:28;;;;;;;13.88;9.60;;;;;;;12.28;100.00;102064.53;5052269;28;20110;-53
2022/06/28 04:37:56;;;;;;;13.18;10.15;;;;;;;12.28;100.00;102061.06;5052164;28;20128;-49
2022/06/28 04:40:24;;;;;;;15.00;11.70;;;;;;;12.29;100.00;102063.63;5052219;28;20033;-54
2022/06/28 04:42:53;;;;;;;14.80;10.57;;;;;;;12.34;100.00;102064.22;5052045;28;20048;-50
2022/06/28 04:45:21;;;;;;;17.88;11.05;;;;;;;12.34;100.00;102060.75;5051751;28;20064;-51
2022/06/28 04:47:49;;;;;;;14.65;12.15;;;;;;;12.38;100.00;102061.44;5051994;28;20049;-55
2022/06/28 04:50:18;;;;;;;15.38;11.55;;;;;;;12.35;100.00;102049.25;5051855;28;20045;-47
2022/06/28 04:52:46;;;;;;;17.88;11.80;;;;;;;12.43;100.00;102056.75;5052137;28;20045;-47
2022/06/28 04:55:15;;;;;;;15.15;10.50;;;;;;;12.46;100.00;102054.81;5053459;28;20049;-46
2022/06/28 04:57:43;;;;;;;16.13;12.10;;;;;;;12.53;100.00;102060.63;5058472;28;20053;-46
2022/06/28 05:00:12;;;;;;;19.13;12.15;;;;;;;12.59;100.00;102070.81;5058625;28;20602;-50
2022/06/28 05:02:40;;;;;;;14.00;10.85;;;;;;;12.65;100.00;102062.59;5057377;28;20103;-45
2022/06/28 05:05:10;;;;;;;19.08;11.48;;;;;;;12.74;100.00;102063.03;5058438;28;20048;-54
2022/06/28 05:07:41;;;;;;;19.13;12.45;;;;;;;12.81;100.00;102067.84;5058395;28;20446;-52
2022/06/28 05:10:09;;;;;;;15.57;12.70;;;;;;;12.89;100.00;102061.31;5058349;28;20049;-47
2022/06/28 05:12:37;;;;;;;16.10;11.48;;;;;;;12.97;100.00;102067.88;5058356;28;20091;-52
2022/06/28 05:15:07;;;;;;;14.45;11.02;;;;;;;13.04;100.00;102067.53;5058327;28;20055;-50
2022/06/28 05:17:35;;;;;;;13.90;10.70;;;;;;;13.13;100.00;102065.22;5058030;28;20052;-53
2022/06/28 05:20:03;;;;;;;15.07;11.40;;;;;;;13.22;100.00;102066.47;5058492;28;20098;-46
2022/06/28 05:22:31;;;;;;;14.20;10.05;;;;;;;13.33;100.00;102068.50;5058117;28;20056;-50
2022/06/28 05:25:01;;;;;;;15.98;10.48;;;;;;;13.41;100.00;102055.72;5057273;28;20053;-51
2022/06/28 05:27:29;;;;;;;15.10;9.40;;;;;;;13.49;100.00;102057.94;5058262;28;20099;-51
2022/06/28 05:29:57;;;;;;;15.63;9.50;;;;;;;13.63;100.00;102060.63;5058444;28;20076;-47
2022/06/28 05:32:25;;;;;;;17.08;9.43;;;;;;;13.66;100.00;102057.81;5058279;28;20091;-53
2022/06/28 05:34:53;;;;;;;13.95;8.30;;;;;;;13.76;100.00;102065.19;5058462;28;20094;-52
2022/06/28 05:37:21;;;;;;;12.98;8.68;;;;;;;13.82;100.00;102055.09;5058254;28;20499;-50
2022/06/28 05:39:49;;;;;;;12.57;8.15;;;;;;;13.94;100.00;102056.16;5058301;28;20045;-49
2022/06/28 05:42:18;;;;;;;13.13;7.65;;;;;;;14.02;100.00;102059.19;5058190;28;20052;-45
2022/06/28 05:44:46;;;;;;;16.65;7.60;;;;;;;14.13;100.00;102062.97;5057933;28;20107;-45
2022/06/28 05:47:14;;;;;;;12.32;7.40;;;;;;;14.19;100.00;102058.16;5058258;28;20102;-46
2022/06/28 05:49:43;;;;;;;13.63;7.20;;;;;;;14.30;100.00;102059.28;5058147;28;20052;-50
2022/06/28 05:52:11;;;;;;;13.43;7.22;;;;;;;14.37;100.00;102052.69;5057042;28;20053;-50
2022/06/28 05:54:40;;;;;;;12.48;6.75;;;;;;;14.47;100.00;102052.97;5058125;28;20053;-50
2022/06/28 05:57:08;;;;;;;16.20;6.82;;;;;;;14.54;100.00;102049.81;5058039;28;20041;-53
2022/06/28 05:59:37;;;;;;;9.38;6.22;;;;;;;14.65;100.00;102054.47;5057983;28;20585;-53
2022/06/28 06:02:05;;;;;;;12.55;6.25;;;;;;;14.71;100.00;102053.22;5057911;28;20099;-52
2022/06/28 06:04:33;;;;;;;12.07;5.95;;;;;;;14.82;100.00;102047.25;5057667;28;20569;-53
2022/06/28 06:07:02;;;;;;;12.82;6.43;;;;;;;14.96;100.00;102051.69;5055114;28;20049;-53
2022/06/28 06:09:30;;;;;;;13.02;6.18;;;;;;;15.02;100.00;102054.78;5054332;28;20099;-51
2022/06/28 06:11:58;;;;;;;13.30;6.13;;;;;;;15.12;100.00;102057.69;5054215;28;20041;-53
2022/06/28 06:14:26;;;;;;;14.02;6.50;;;;;;;15.25;100.00;102065.66;5054101;28;20724;-47
2022/06/28 06:16:55;;;;;;;12.07;5.55;;;;;;;15.36;100.00;102063.13;5054087;28;20083;-50
2022/06/28 06:19:23;;;;;;;12.23;5.82;;;;;;;15.48;100.00;102053.53;5054223;28;20053;-51
2022/06/28 06:21:51;;;;;;;10.38;5.28;;;;;;;15.61;100.00;102060.66;5054275;28;20049;-53
2022/06/28 06:24:20;;;;;;;12.50;5.85;;;;;;;15.68;100.00;102065.47;5054262;28;20075;-55
2022/06/28 06:26:48;;;;;;;12.18;5.55;;;;;;;15.80;100.00;102062.94;5054223;28;20045;-53
2022/06/28 06:29:16;;;;;;;12.15;5.47;;;;;;;15.92;100.00;102070.06;5054438;28;20049;-53
2022/06/28 06:31:44;;;;;;;12.32;5.40;;;;;;;16.00;100.00;102067.72;5054344;28;20048;-47
2022/06/28 06:34:14;;;;;;;11.88;5.15;;;;;;;16.20;100.00;102065.53;5054506;28;20484;-50
2022/06/28 06:36:45;;;;;;;11.65;4.93;;;;;;;16.35;100.00;102069.75;5054465;28;20103;-47
2022/06/28 06:39:13;;;;;;;12.40;5.20;;;;;;;16.49;100.00;102070.59;5054167;28;20079;-54
2022/06/28 06:41:41;;;;;;;14.25;5.32;;;;;;;16.55;100.00;102067.47;5053741;28;20041;-52
2022/06/28 06:44:09;;;;;;;13.57;4.63;;;;;;;16.66;100.00;102070.22;5054164;28;20128;-54
2022/06/28 06:46:38;;;;;;;11.48;4.65;;;;;;;16.81;100.00;102072.72;5054142;28;20049;-46
2022/06/28 06:49:08;;;;;;;12.48;4.82;;;;;;;16.95;100.00;102069.13;5054586;28;20071;-51
2022/06/28 06:51:38;;;;;;;10.63;4.88;;;;;;;17.01;100.00;102080.13;5054013;28;20103;-48
2022/06/28 06:54:06;;;;;;;13.90;5.07;;;;;;;17.21;100.00;102070.69;5054182;28;20057;-49
2022/06/28 06:56:34;;;;;;;11.90;4.10;;;;;;;17.42;100.00;102077.19;5054142;28;20522;-50
2022/06/28 06:59:02;;;;;;;13.88;4.68;;;;;;;17.51;99.16;102080.00;5053996;28;20083;-47
2022/06/28 07:01:33;;;;;;;14.52;4.63;;;;;;;17.70;100.00;102067.97;5053697;28;20119;-50
2022/06/28 07:04:11;;;;;;;12.48;4.25;;;;;;;17.81;98.94;102078.66;5053459;28;20562;-47
2022/06/28 07:06:41;;;;;;;13.65;4.60;;;;;;;17.89;99.81;102088.72;5053626;28;20060;-54
2022/06/28 07:09:09;;;;;;;14.48;4.50;;;;;;;17.99;97.30;102091.53;5053271;28;20487;-55
2022/06/28 07:11:37;;;;;;;16.23;4.50;;;;;;;18.19;97.04;102093.50;5054068;28;20128;-54
2022/06/28 07:14:05;;;;;;;15.88;4.47;;;;;;;18.38;95.92;102098.22;5054428;28;20045;-43
2022/06/28 07:16:33;;;;;;;16.55;5.30;;;;;;;18.52;93.47;102101.63;5052469;28;20057;-53
2022/06/28 07:19:02;;;;;;;12.85;4.85;;;;;;;18.58;92.01;102094.00;5053372;28;20063;-48
2022/06/28 07:21:30;;;;;;;11.35;4.40;;;;;;;18.58;89.30;102096.66;5053357;28;20094;-49
2022/06/28 07:23:59;;;;;;;12.73;5.00;;;;;;;18.61;89.18;102092.91;5053480;28;20103;-47
2022/06/28 07:26:27;;;;;;;16.05;4.40;;;;;;;18.61;90.47;102102.69;5053252;28;20707;-56
2022/06/28 07:28:55;;;;;;;12.10;4.57;;;;;;;18.73;92.23;102107.03;5053168;28;20049;-50
2022/06/28 07:31:23;;;;;;;18.13;4.90;;;;;;;18.71;88.00;102109.84;5052843;28;20048;-55
2022/06/28 07:33:51;;;;;;;13.55;5.03;;;;;;;18.95;85.99;102114.22;5052867;28;20053;-45
2022/06/28 07:36:19;;;;;;;14.55;4.07;;;;;;;19.07;88.98;102110.53;5052823;28;20064;-48
2022/06/28 07:38:47;;;;;;;16.50;4.38;;;;;;;19.25;87.92;102107.31;5052790;28;20041;-47
2022/06/28 07:41:17;;;;;;;13.43;3.63;;;;;;;19.49;87.60;102106.28;5052811;28;20040;-45
2022/06/28 07:43:45;;;;;;;15.73;3.92;;;;;;;19.75;86.51;102114.75;5052802;28;20115;-54
2022/06/28 07:46:13;;;;;;;12.60;3.80;;;;;;;19.82;81.66;102104.44;5052478;28;20512;-55
2022/06/28 07:48:41;;;;;;;13.27;4.07;;;;;;;19.82;82.75;102101.78;5052627;28;20136;-52
2022/06/28 07:54:09;;;;;;;17.63;4.60;;;;;;;20.10;80.82;102098.44;5030458;28;20404;-51
2022/06/28 07:56:39;;;;;;;12.63;4.20;;;;;;;20.32;80.11;102093.91;5030128;28;20127;-47
2022/06/28 07:59:07;;;;;;;16.33;3.83;;;;;;;20.26;77.41;102099.78;5040566;28;20061;-49
2022/06/28 08:01:36;;;;;;;11.18;3.13;;;;;;;20.40;77.24;102093.25;5052303;28;20044;-52
2022/06/28 08:04:04;;;;;;;12.05;3.20;;;;;;;20.69;76.49;102095.19;5052337;28;20147;-51
2022/06/28 08:06:32;;;;;;;13.20;3.42;;;;;;;20.73;74.14;102093.94;5052493;28;20102;-49
2022/06/28 08:09:00;;;;;;;12.02;2.85;;;;;;;20.65;73.25;102091.06;5052462;28;20531;-55
2022/06/28 08:11:28;;;;;;;11.52;3.33;;;;;;;20.68;72.58;102088.13;5052466;28;20044;-53
2022/06/28 08:13:57;;;;;;;8.38;2.67;;;;;;;20.82;71.65;102082.44;5052447;28;20057;-54
2022/06/28 08:16:26;;;;;;;9.55;2.20;;;;;;;21.25;70.86;102077.69;5052511;28;20037;-47
2022/06/28 08:18:55;;;;;;;11.82;2.55;;;;;;;21.42;68.35;102081.50;5052331;28;20163;-55
2022/06/28 08:21:23;;;;;;;10.15;2.58;;;;;;;21.73;72.65;102082.19;5052302;28;20135;-48
2022/06/28 08:23:51;;;;;;;10.35;2.60;;;;;;;22.08;68.99;102080.69;5052249;28;20059;-51
2022/06/28 08:26:19;;;;;;;11.18;2.92;;;;;;;22.07;64.13;102079.03;5052452;28;20052;-51
2022/06/28 08:28:47;;;;;;;11.90;2.47;;;;;;;21.95;66.27;102069.44;5052610;28;20072;-50
2022/06/28 08:31:16;;;;;;;9.65;2.95;;;;;;;21.98;61.16;102073.66;5051548;28;20041;-47
2022/06/28 08:33:45;;;;;;;11.85;2.80;;;;;;;22.01;64.74;102073.41;5051039;28;20044;-46
2022/06/28 08:36:13;;;;;;;11.70;2.90;;;;;;;22.20;65.79;102078.69;5052448;28;20147;-52
2022/06/28 08:38:41;;;;;;;9.85;2.70;;;;;;;22.41;62.12;102070.41;5050889;28;20053;-49
2022/06/28 08:41:10;;;;;;;8.00;2.30;;;;;;;22.23;60.68;102081.06;5052608;28;20076;-52
2022/06/28 08:43:38;;;;;;;11.80;2.70;;;;;;;22.16;57.21;102068.41;5050631;28;20049;-47
2022/06/28 08:46:07;;;;;;;10.52;2.50;;;;;;;22.24;58.66;102063.16;5051914;28;20057;-53
2022/06/28 08:48:41;;;;;;;8.77;2.05;;;;;;;22.31;57.20;102063.41;5050553;28;20103;-47
2022/06/28 08:51:10;;;;;;;7.75;2.10;;;;;;;22.74;58.01;102067.28;5051929;28;20573;-53
2022/06/28 08:53:40;;;;;;;7.53;2.17;;;;;;;22.95;55.56;102061.66;5051856;28;20426;-50
2022/06/28 08:56:09;;;;;;;6.95;1.60;;;;;;;22.39;53.70;102055.50;5051926;28;20087;-54
2022/06/28 08:58:41;;;;;;;7.13;1.70;;;;;;;22.64;52.71;102059.31;5051953;28;20053;-49
2022/06/28 09:01:10;;;;;;;6.68;1.55;;;;;;;22.83;54.62;102057.50;5051565;28;20049;-55
2022/06/28 09:03:40;;;;;;;6.78;1.50;;;;;;;23.07;52.95;102052.38;5051710;28;20037;-55
2022/06/28 09:06:09;;;;;;;7.07;1.70;;;;;;;23.28;48.95;102053.94;5051878;28;20075;-51
2022/06/28 09:08:38;;;;;;;8.98;1.75;;;;;;;23.52;49.48;102052.44;5051914;28;20052;-49
2022/06/28 09:11:06;;;;;;;6.85;1.55;;;;;;;23.67;51.68;102040.16;5051865;28;20048;-51
2022/06/28 09:13:36;;;;;;;8.10;1.73;;;;;;;23.56;52.00;102046.63;5051663;28;20111;-56
2022/06/28 09:16:05;;;;;;;8.55;1.77;;;;;;;24.00;52.14;102047.59;5051891;28;20041;-52
2022/06/28 09:18:46;;;;;;;6.50;1.80;;;;;;;24.09;46.20;102039.41;5051627;28;20503;-52
2022/06/28 09:21:16;;;;;;;6.10;1.75;;;;;;;23.85;47.09;102040.09;5051733;28;20519;-51
2022/06/28 09:23:46;;;;;;;7.80;1.90;;;;;;;24.11;48.39;102032.03;5051577;28;20040;-50
2022/06/28 09:26:16;;;;;;;6.38;1.70;;;;;;;24.10;48.46;102027.63;5051686;28;20033;-55
2022/06/28 09:28:46;;;;;;;7.38;1.45;;;;;;;24.18;45.50;102026.84;5051526;28;20049;-48
2022/06/28 09:31:20;;;;;;;7.43;1.50;;;;;;;24.47;47.08;102028.28;5051586;28;20044;-51
2022/06/28 09:34:04;;;;;;;5.07;1.40;;;;;;;24.54;47.08;102017.72;5051785;28;20110;-49
2022/06/28 09:36:34;;;;;;;4.65;1.25;;;;;;;24.93;46.52;102023.38;5051712;28;20041;-48
2022/06/28 09:39:12;;;;;;;6.63;1.33;;;;;;;24.90;43.78;102022.88;5051626;28;20048;-49
2022/06/28 09:41:44;;;;;;;6.93;1.60;;;;;;;25.37;44.57;102021.38;5052654;28;20048;-49
2022/06/28 09:44:32;;;;;;;6.30;1.60;;;;;;;24.93;45.20;102030.59;5055212;28;20120;-52
2022/06/28 09:47:00;;;;;;;5.22;1.20;;;;;;;25.16;42.38;102029.97;5055051;28;20541;-46
2022/06/28 09:49:32;;;;;;;5.53;1.30;;;;;;;25.16;40.88;102016.50;5055542;28;20488;-46
2022/06/28 09:52:03;;;;;;;4.28;1.05;;;;;;;25.53;44.04;102015.16;5055301;28;20524;-48
2022/06/28 09:54:31;;;;;;;6.22;1.25;;;;;;;25.72;43.00;102011.25;5054837;28;20053;-55
2022/06/28 09:57:00;;;;;;;6.47;1.52;;;;;;;25.66;42.68;102010.09;5054834;28;20079;-47
2022/06/28 09:59:29;;;;;;;4.15;1.05;;;;;;;25.29;40.80;102003.34;5054732;28;20106;-45
2022/06/28 10:01:58;;;;;;;5.30;1.23;;;;;;;25.58;42.14;101999.34;5055001;28;20044;-50
2022/06/28 10:04:27;;;;;;;6.30;1.30;;;;;;;25.57;41.14;101995.78;5054896;28;20550;-50
2022/06/28 10:06:57;;;;;;;5.28;1.45;;;;;;;25.94;44.33;102009.66;5054968;28;20045;-45
2022/06/28 10:09:25;;;;;;;5.88;1.55;;;;;;;26.19;40.62;101993.41;5054958;28;20119;-50
2022/06/28 10:17:44;;;;;;;4.80;1.20;;;;;;;26.87;39.61;101996.38;5054840;28;20107;-49
2022/06/28 10:20:16;;;;;;;5.75;1.20;;;;;;;26.86;37.67;101998.25;5054615;28;20056;-54
2022/06/28 10:22:46;;;;;;;7.40;1.15;;;;;;;26.64;36.84;101998.03;5054682;28;20041;-54
2022/06/28 10:25:16;;;;;;;4.18;1.27;;;;;;;26.51;36.80;101992.41;5054791;28;20033;-50
2022/06/28 10:27:47;;;;;;;5.18;1.20;;;;;;;26.80;39.28;101989.00;5054853;28;20041;-49
2022/06/28 10:30:26;;;;;;;5.50;1.00;;;;;;;26.92;37.73;101988.59;5054468;28;20503;-53
2022/06/28 10:32:56;;;;;;;6.10;1.10;;;;;;;26.80;36.81;101993.56;5054934;28;20045;-51
2022/06/28 10:36:04;;;;;;;4.00;1.00;;;;;;;27.22;36.83;101988.69;5054438;28;20480;-51
2022/06/28 10:38:33;;;;;;;5.35;1.20;;;;;;;27.22;37.99;101988.69;5054445;28;20049;-55
2022/06/28 10:41:15;;;;;;;3.95;1.10;;;;;;;27.72;37.25;101980.91;5054256;28;20483;-49
2022/06/28 10:43:50;;;;;;;4.18;0.77;;;;;;;27.44;35.97;101970.78;5054324;28;20049;-48
2022/06/28 10:46:18;;;;;;;4.47;1.10;;;;;;;27.57;34.67;101970.09;5053943;28;20061;-52
2022/06/28 10:49:08;;;;;;;5.82;1.17;;;;;;;27.82;36.89;101968.81;5054161;28;20049;-49
2022/06/28 10:51:42;;;;;;;5.32;0.98;;;;;;;27.93;36.96;101975.59;5053920;28;20048;-52
2022/06/28 10:54:17;;;;;;;4.63;1.02;;;;;;;28.25;35.76;101968.13;5053337;28;20128;-53
2022/06/28 10:56:47;;;;;;;6.68;1.13;;;;;;;28.49;35.69;101966.91;5053586;28;20041;-50
2022/06/28 10:59:17;;;;;;;3.67;0.85;;;;;;;28.59;34.25;101971.16;5053531;28;20053;-53
2022/06/28 11:01:58;;;;;;;3.42;1.00;;;;;;;28.57;35.21;101971.34;5053801;28;20091;-48
2022/06/28 11:04:29;;;;;;;3.55;1.10;;;;;;;28.79;36.60;101969.50;5053880;28;20102;-49
2022/06/28 11:07:05;;;;;;;3.90;0.80;;;;;;;29.00;35.06;101954.28;5052633;28;20099;-48
2022/06/28 11:09:57;;;;;;;5.47;0.98;;;;;;;29.07;36.27;101955.19;5053828;28;20052;-47
2022/06/28 11:12:38;;;;;;;3.63;1.00;;;;;;;29.11;34.80;101948.34;5053738;28;20045;-51
2022/06/28 11:15:08;;;;;;;6.68;1.10;;;;;;;29.22;35.21;101946.09;5053498;28;20049;-52
2022/06/28 11:17:39;;;;;;;4.32;1.15;;;;;;;29.45;32.89;101941.31;5053751;28;20045;-52
2022/06/28 11:20:11;;;;;;;5.13;1.20;;;;;;;28.98;32.56;101946.34;5053606;28;20504;-48
2022/06/28 11:22:42;;;;;;;4.40;1.13;;;;;;;28.90;33.69;101937.56;5053383;28;20049;-51
2022/06/28 11:25:13;;;;;;;5.05;1.10;;;;;;;29.01;34.86;101939.72;5053491;28;20454;-50
2022/06/28 11:27:45;;;;;;;4.10;1.05;;;;;;;29.50;36.21;101933.41;5053243;28;20094;-52
2022/06/28 11:30:15;;;;;;;5.60;1.20;;;;;;;29.66;34.74;101934.94;5053422;28;20045;-49
2022/06/28 11:32:44;;;;;;;3.85;1.27;;;;;;;29.81;36.89;101934.81;5052618;28;20048;-54
2022/06/28 11:35:14;;;;;;;7.05;1.48;;;;;;;30.16;35.17;101939.34;5052876;28;20132;-50
2022/06/28 11:37:50;;;;;;;4.68;1.17;;;;;;;30.21;34.16;101928.69;5053146;28;20447;-54
2022/06/28 11:40:21;;;;;;;4.45;1.00;;;;;;;30.45;34.30;101934.63;5052588;28;20040;-55
2022/06/28 11:43:01;;;;;;;5.13;1.25;;;;;;;29.87;31.78;101937.78;5052500;28;20052;-51